sensor_id;sensor_type;location;lat;lon;timestamp;pressure;altitude;pressure_sealevel;temperature;humidity
74169;BME280;62523;53.336;83.690;2023-02-01T00:02:27;100423.69;;;-14.40;95.96
74169;BME280;62523;53.336;83.690;2023-02-01T00:07:28;100387.59;;;-14.51;95.94
74169;BME280;62523;53.336;83.690;2023-02-01T00:12:30;100417.94;;;-14.37;95.85
74169;BME280;62523;53.336;83.690;2023-02-01T00:17:32;100418.16;;;-14.48;96.13
74169;BME280;62523;53.336;83.690;2023-02-01T00:22:33;100405.13;;;-14.69;96.28
74169;BME280;62523;53.336;83.690;2023-02-01T00:27:34;100423.41;;;-14.73;96.45
74169;BME280;62523;53.336;83.690;2023-02-01T00:32:35;100432.94;;;-14.69;96.28
74169;BME280;62523;53.336;83.690;2023-02-01T00:37:36;100400.75;;;-14.85;96.17
74169;BME280;62523;53.336;83.690;2023-02-01T00:42:37;100440.63;;;-14.80;96.40
74169;BME280;62523;53.336;83.690;2023-02-01T00:47:38;100445.13;;;-14.90;96.43
74169;BME280;62523;53.336;83.690;2023-02-01T00:52:40;100429.25;;;-14.87;97.09
74169;BME280;62523;53.336;83.690;2023-02-01T00:57:41;100422.81;;;-14.82;97.02
74169;BME280;62523;53.336;83.690;2023-02-01T01:02:42;100429.06;;;-15.03;97.55
74169;BME280;62523;53.336;83.690;2023-02-01T01:07:43;100431.88;;;-15.12;98.58
74169;BME280;62523;53.336;83.690;2023-02-01T01:12:44;100412.16;;;-15.18;99.93
74169;BME280;62523;53.336;83.690;2023-02-01T01:17:46;100447.06;;;-14.99;100.00
74169;BME280;62523;53.336;83.690;2023-02-01T01:22:48;100449.88;;;-14.94;100.00
74169;BME280;62523;53.336;83.690;2023-02-01T01:27:49;100469.03;;;-14.85;100.00
74169;BME280;62523;53.336;83.690;2023-02-01T01:32:51;100449.97;;;-15.06;100.00
74169;BME280;62523;53.336;83.690;2023-02-01T01:37:53;100468.34;;;-14.95;100.00
74169;BME280;62523;53.336;83.690;2023-02-01T01:42:55;100482.53;;;-15.11;100.00
74169;BME280;62523;53.336;83.690;2023-02-01T01:48:10;100470.31;;;-15.04;100.00
74169;BME280;62523;53.336;83.690;2023-02-01T01:53:16;100478.34;;;-15.10;100.00
74169;BME280;62523;53.336;83.690;2023-02-01T01:58:24;100472.94;;;-14.90;100.00
74169;BME280;62523;53.336;83.690;2023-02-01T02:03:41;100497.13;;;-14.80;100.00
74169;BME280;62523;53.336;83.690;2023-02-01T02:08:43;100488.50;;;-14.70;100.00
74169;BME280;62523;53.336;83.690;2023-02-01T02:13:47;100482.47;;;-14.99;100.00
74169;BME280;62523;53.336;83.690;2023-02-01T02:19:09;100499.56;;;-14.95;100.00
74169;BME280;62523;53.336;83.690;2023-02-01T02:24:44;100496.75;;;-14.86;100.00
74169;BME280;62523;53.336;83.690;2023-02-01T02:30:32;100497.06;;;-14.81;100.00
74169;BME280;62523;53.336;83.690;2023-02-01T02:41:15;100495.03;;;-14.46;100.00
74169;BME280;62523;53.336;83.690;2023-02-01T02:46:46;100493.88;;;-14.09;100.00
74169;BME280;62523;53.336;83.690;2023-02-01T02:52:17;100484.81;;;-14.34;100.00
74169;BME280;62523;53.336;83.690;2023-02-01T02:57:40;100499.88;;;-14.22;100.00
74169;BME280;62523;53.336;83.690;2023-02-01T03:03:01;100510.56;;;-14.13;100.00
74169;BME280;62523;53.336;83.690;2023-02-01T03:08:24;100504.22;;;-14.06;99.88
74169;BME280;62523;53.336;83.690;2023-02-01T03:23:37;100512.41;;;-13.39;97.06
74169;BME280;62523;53.336;83.690;2023-02-01T03:29:12;100510.03;;;-12.91;95.75
74169;BME280;62523;53.336;83.690;2023-02-01T03:34:15;100508.31;;;-12.46;94.10
74169;BME280;62523;53.336;83.690;2023-02-01T03:39:32;100491.00;;;-12.53;90.86
74169;BME280;62523;53.336;83.690;2023-02-01T03:44:40;100509.47;;;-12.25;88.44
74169;BME280;62523;53.336;83.690;2023-02-01T03:49:47;100503.69;;;-12.06;87.06
74169;BME280;62523;53.336;83.690;2023-02-01T03:54:51;100502.19;;;-12.02;85.72
74169;BME280;62523;53.336;83.690;2023-02-01T03:59:52;100502.34;;;-11.83;84.41
74169;BME280;62523;53.336;83.690;2023-02-01T04:04:53;100497.25;;;-11.83;83.13
74169;BME280;62523;53.336;83.690;2023-02-01T04:09:55;100486.06;;;-12.19;83.24
74169;BME280;62523;53.336;83.690;2023-02-01T04:14:56;100496.13;;;-12.21;84.58
74169;BME280;62523;53.336;83.690;2023-02-01T04:19:57;100486.47;;;-12.11;84.97
74169;BME280;62523;53.336;83.690;2023-02-01T04:24:58;100483.94;;;-11.95;84.69
74169;BME280;62523;53.336;83.690;2023-02-01T04:29:59;100491.97;;;-12.04;84.59
74169;BME280;62523;53.336;83.690;2023-02-01T04:35:00;100478.22;;;-12.07;83.51
74169;BME280;62523;53.336;83.690;2023-02-01T04:40:04;100495.34;;;-11.87;82.59
74169;BME280;62523;53.336;83.690;2023-02-01T04:45:06;100483.56;;;-11.68;80.84
74169;BME280;62523;53.336;83.690;2023-02-01T04:50:07;100487.31;;;-11.62;80.16
74169;BME280;62523;53.336;83.690;2023-02-01T04:55:11;100499.38;;;-11.41;79.98
74169;BME280;62523;53.336;83.690;2023-02-01T05:00:14;100489.19;;;-11.41;79.25
74169;BME280;62523;53.336;83.690;2023-02-01T05:05:15;100476.41;;;-10.90;77.61
74169;BME280;62523;53.336;83.690;2023-02-01T05:10:16;100504.44;;;-10.55;75.92
74169;BME280;62523;53.336;83.690;2023-02-01T05:15:17;100482.06;;;-10.60;76.21
74169;BME280;62523;53.336;83.690;2023-02-01T05:20:19;100511.06;;;-10.21;75.72
74169;BME280;62523;53.336;83.690;2023-02-01T05:25:20;100464.63;;;-10.53;75.74
74169;BME280;62523;53.336;83.690;2023-02-01T05:30:21;100508.38;;;-9.86;74.63
74169;BME280;62523;53.336;83.690;2023-02-01T05:35:22;100508.75;;;-9.97;74.01
74169;BME280;62523;53.336;83.690;2023-02-01T05:40:23;100501.28;;;-10.12;73.88
74169;BME280;62523;53.336;83.690;2023-02-01T05:45:24;100491.06;;;-9.74;72.42
74169;BME280;62523;53.336;83.690;2023-02-01T05:50:25;100503.66;;;-9.58;70.78
74169;BME280;62523;53.336;83.690;2023-02-01T05:55:27;100498.16;;;-9.48;69.93
74169;BME280;62523;53.336;83.690;2023-02-01T06:00:28;100491.00;;;-8.95;68.14
74169;BME280;62523;53.336;83.690;2023-02-01T06:05:29;100503.03;;;-9.13;68.21
74169;BME280;62523;53.336;83.690;2023-02-01T06:10:30;100497.44;;;-8.83;66.84
74169;BME280;62523;53.336;83.690;2023-02-01T06:15:31;100509.31;;;-9.05;68.78
74169;BME280;62523;53.336;83.690;2023-02-01T06:20:33;100514.78;;;-9.17;68.47
74169;BME280;62523;53.336;83.690;2023-02-01T06:25:34;100504.47;;;-8.99;66.98
74169;BME280;62523;53.336;83.690;2023-02-01T06:30:35;100495.41;;;-8.70;66.75
74169;BME280;62523;53.336;83.690;2023-02-01T06:35:36;100503.31;;;-8.63;66.44
74169;BME280;62523;53.336;83.690;2023-02-01T06:40:38;100488.63;;;-8.69;65.97
74169;BME280;62523;53.336;83.690;2023-02-01T06:45:39;100483.63;;;-8.45;65.45
74169;BME280;62523;53.336;83.690;2023-02-01T06:50:42;100480.94;;;-8.26;64.51
74169;BME280;62523;53.336;83.690;2023-02-01T06:55:58;100488.75;;;-8.21;63.94
74169;BME280;62523;53.336;83.690;2023-02-01T07:01:06;100485.91;;;-8.29;65.34
74169;BME280;62523;53.336;83.690;2023-02-01T07:06:09;100470.16;;;-8.39;64.96
74169;BME280;62523;53.336;83.690;2023-02-01T07:11:13;100484.16;;;-8.07;64.52
74169;BME280;62523;53.336;83.690;2023-02-01T07:16:16;100471.28;;;-7.86;64.10
74169;BME280;62523;53.336;83.690;2023-02-01T07:21:19;100466.63;;;-7.74;63.26
74169;BME280;62523;53.336;83.690;2023-02-01T07:26:21;100472.00;;;-7.90;63.65
74169;BME280;62523;53.336;83.690;2023-02-01T07:31:22;100467.47;;;-7.49;62.96
74169;BME280;62523;53.336;83.690;2023-02-01T07:36:24;100452.50;;;-7.63;63.10
74169;BME280;62523;53.336;83.690;2023-02-01T07:41:25;100468.69;;;-7.39;63.00
74169;BME280;62523;53.336;83.690;2023-02-01T07:46:26;100467.75;;;-7.42;62.72
74169;BME280;62523;53.336;83.690;2023-02-01T07:51:27;100455.25;;;-7.07;62.55
74169;BME280;62523;53.336;83.690;2023-02-01T07:56:28;100455.97;;;-7.36;62.30
74169;BME280;62523;53.336;83.690;2023-02-01T08:01:29;100450.75;;;-7.14;62.87
74169;BME280;62523;53.336;83.690;2023-02-01T08:06:32;100456.59;;;-6.92;63.76
74169;BME280;62523;53.336;83.690;2023-02-01T08:11:34;100455.00;;;-7.14;64.67
74169;BME280;62523;53.336;83.690;2023-02-01T08:16:38;100451.84;;;-7.33;65.59
74169;BME280;62523;53.336;83.690;2023-02-01T08:21:40;100473.25;;;-7.31;66.53
74169;BME280;62523;53.336;83.690;2023-02-01T08:26:41;100462.38;;;-7.24;66.34
74169;BME280;62523;53.336;83.690;2023-02-01T08:31:42;100454.44;;;-7.57;68.19
74169;BME280;62523;53.336;83.690;2023-02-01T08:36:44;100473.66;;;-7.43;68.14
74169;BME280;62523;53.336;83.690;2023-02-01T08:41:45;100470.59;;;-7.58;67.69
74169;BME280;62523;53.336;83.690;2023-02-01T08:47:06;100472.91;;;-7.40;67.53
74169;BME280;62523;53.336;83.690;2023-02-01T08:52:07;100476.75;;;-7.27;67.82
74169;BME280;62523;53.336;83.690;2023-02-01T08:57:08;100460.38;;;-7.32;68.34
74169;BME280;62523;53.336;83.690;2023-02-01T09:02:14;100473.59;;;-7.20;67.81
74169;BME280;62523;53.336;83.690;2023-02-01T09:07:16;100480.03;;;-7.31;69.05
74169;BME280;62523;53.336;83.690;2023-02-01T09:12:18;100481.13;;;-7.25;69.20
74169;BME280;62523;53.336;83.690;2023-02-01T09:17:19;100473.81;;;-7.14;68.94
74169;BME280;62523;53.336;83.690;2023-02-01T09:22:21;100470.31;;;-7.16;68.69
74169;BME280;62523;53.336;83.690;2023-02-01T09:27:22;100477.09;;;-7.18;68.61
74169;BME280;62523;53.336;83.690;2023-02-01T09:32:24;100460.47;;;-7.29;69.75
74169;BME280;62523;53.336;83.690;2023-02-01T09:37:26;100472.69;;;-7.22;69.45
74169;BME280;62523;53.336;83.690;2023-02-01T09:48:02;100477.22;;;-7.39;69.25
74169;BME280;62523;53.336;83.690;2023-02-01T09:58:41;100476.91;;;-7.48;69.23
74169;BME280;62523;53.336;83.690;2023-02-01T10:03:42;100471.91;;;-7.69;70.11
74169;BME280;62523;53.336;83.690;2023-02-01T10:24:58;100491.03;;;-8.06;72.25
74169;BME280;62523;53.336;83.690;2023-02-01T10:30:18;100487.91;;;-8.21;72.93
74169;BME280;62523;53.336;83.690;2023-02-01T10:35:31;100493.94;;;-8.42;73.88
74169;BME280;62523;53.336;83.690;2023-02-01T10:40:34;100485.41;;;-8.42;74.60
74169;BME280;62523;53.336;83.690;2023-02-01T10:45:38;100490.13;;;-8.53;74.65
74169;BME280;62523;53.336;83.690;2023-02-01T10:50:51;100491.38;;;-8.64;74.51
74169;BME280;62523;53.336;83.690;2023-02-01T10:55:55;100471.31;;;-8.76;74.56
74169;BME280;62523;53.336;83.690;2023-02-01T11:01:05;100483.91;;;-8.81;74.52
74169;BME280;62523;53.336;83.690;2023-02-01T11:11:31;100496.41;;;-9.08;74.88
74169;BME280;62523;53.336;83.690;2023-02-01T11:16:39;100507.31;;;-9.12;74.08
74169;BME280;62523;53.336;83.690;2023-02-01T11:21:41;100491.50;;;-9.24;74.45
74169;BME280;62523;53.336;83.690;2023-02-01T11:26:45;100507.69;;;-9.24;74.73
74169;BME280;62523;53.336;83.690;2023-02-01T11:31:47;100510.06;;;-9.27;73.81
74169;BME280;62523;53.336;83.690;2023-02-01T11:36:49;100513.03;;;-9.18;73.10
74169;BME280;62523;53.336;83.690;2023-02-01T11:41:55;100511.16;;;-9.22;73.67
74169;BME280;62523;53.336;83.690;2023-02-01T11:47:23;100502.91;;;-9.36;72.92
74169;BME280;62523;53.336;83.690;2023-02-01T12:13:54;100522.16;;;-9.44;73.11
74169;BME280;62523;53.336;83.690;2023-02-01T12:19:04;100512.94;;;-9.60;73.26
74169;BME280;62523;53.336;83.690;2023-02-01T12:39:58;100516.81;;;-9.49;74.18
74169;BME280;62523;53.336;83.690;2023-02-01T12:50:53;100533.63;;;-9.54;75.05
74169;BME280;62523;53.336;83.690;2023-02-01T12:55:58;100525.16;;;-9.53;74.54
74169;BME280;62523;53.336;83.690;2023-02-01T13:01:09;100520.00;;;-9.54;74.31
74169;BME280;62523;53.336;83.690;2023-02-01T13:06:22;100525.84;;;-9.57;74.46
74169;BME280;62523;53.336;83.690;2023-02-01T13:11:26;100533.97;;;-9.65;74.92
74169;BME280;62523;53.336;83.690;2023-02-01T13:16:35;100541.66;;;-9.83;75.34
74169;BME280;62523;53.336;83.690;2023-02-01T13:21:46;100537.50;;;-9.81;75.99
74169;BME280;62523;53.336;83.690;2023-02-01T13:26:47;100528.50;;;-9.73;75.56
74169;BME280;62523;53.336;83.690;2023-02-01T13:32:11;100545.53;;;-9.72;74.82
74169;BME280;62523;53.336;83.690;2023-02-01T13:38:01;100552.19;;;-9.76;74.45
74169;BME280;62523;53.336;83.690;2023-02-01T13:47:51;100541.16;;;-9.94;74.91
74169;BME280;62523;53.336;83.690;2023-02-01T13:52:56;100526.13;;;-10.07;75.41
74169;BME280;62523;53.336;83.690;2023-02-01T13:58:02;100540.66;;;-10.05;75.34
74169;BME280;62523;53.336;83.690;2023-02-01T14:23:41;100552.41;;;-10.26;75.66
74169;BME280;62523;53.336;83.690;2023-02-01T14:34:03;100500.41;;;-10.32;75.39
74169;BME280;62523;53.336;83.690;2023-02-01T14:44:34;100542.69;;;-10.17;75.32
74169;BME280;62523;53.336;83.690;2023-02-01T14:55:03;100543.56;;;-10.35;76.72
74169;BME280;62523;53.336;83.690;2023-02-01T15:00:24;100547.28;;;-10.46;77.14
74169;BME280;62523;53.336;83.690;2023-02-01T15:05:32;100544.84;;;-10.62;78.42
74169;BME280;62523;53.336;83.690;2023-02-01T15:10:44;100538.63;;;-10.67;79.15
74169;BME280;62523;53.336;83.690;2023-02-01T15:16:12;100537.56;;;-10.89;80.27
74169;BME280;62523;53.336;83.690;2023-02-01T15:21:19;100546.16;;;-10.87;80.39
74169;BME280;62523;53.336;83.690;2023-02-01T15:26:25;100534.69;;;-10.97;81.93
74169;BME280;62523;53.336;83.690;2023-02-01T15:31:39;100532.44;;;-10.73;81.96
74169;BME280;62523;53.336;83.690;2023-02-01T15:36:42;100542.75;;;-10.69;81.16
74169;BME280;62523;53.336;83.690;2023-02-01T15:41:46;100527.69;;;-10.83;81.00
74169;BME280;62523;53.336;83.690;2023-02-01T15:46:49;100526.84;;;-10.83;81.79
74169;BME280;62523;53.336;83.690;2023-02-01T15:51:52;100527.69;;;-10.83;81.58
74169;BME280;62523;53.336;83.690;2023-02-01T15:56:55;100518.34;;;-10.84;82.26
74169;BME280;62523;53.336;83.690;2023-02-01T16:01:57;100512.34;;;-10.84;82.37
74169;BME280;62523;53.336;83.690;2023-02-01T16:07:00;100504.81;;;-10.99;82.45
74169;BME280;62523;53.336;83.690;2023-02-01T16:12:04;100518.09;;;-10.88;82.30
74169;BME280;62523;53.336;83.690;2023-02-01T16:17:20;100521.94;;;-10.97;82.46
74169;BME280;62523;53.336;83.690;2023-02-01T16:22:22;100524.22;;;-11.19;82.81
74169;BME280;62523;53.336;83.690;2023-02-01T16:27:23;100532.47;;;-11.23;83.49
74169;BME280;62523;53.336;83.690;2023-02-01T16:32:24;100528.84;;;-11.28;83.55
74169;BME280;62523;53.336;83.690;2023-02-01T16:37:27;100525.75;;;-11.39;84.16
74169;BME280;62523;53.336;83.690;2023-02-01T16:42:32;100531.81;;;-11.54;85.39
74169;BME280;62523;53.336;83.690;2023-02-01T16:47:36;100523.72;;;-11.63;86.60
74169;BME280;62523;53.336;83.690;2023-02-01T16:52:39;100517.25;;;-11.56;86.90
74169;BME280;62523;53.336;83.690;2023-02-01T16:58:02;100530.69;;;-11.59;87.07
74169;BME280;62523;53.336;83.690;2023-02-01T17:03:04;100523.06;;;-11.75;86.86
74169;BME280;62523;53.336;83.690;2023-02-01T17:08:06;100518.22;;;-11.87;87.33
74169;BME280;62523;53.336;83.690;2023-02-01T17:13:14;100533.31;;;-11.90;87.96
74169;BME280;62523;53.336;83.690;2023-02-01T17:18:16;100532.94;;;-11.98;87.85
74169;BME280;62523;53.336;83.690;2023-02-01T17:23:18;100535.94;;;-12.05;88.62
74169;BME280;62523;53.336;83.690;2023-02-01T17:28:20;100538.06;;;-12.12;88.77
74169;BME280;62523;53.336;83.690;2023-02-01T17:33:31;100546.22;;;-12.18;88.93
74169;BME280;62523;53.336;83.690;2023-02-01T17:38:34;100550.34;;;-12.20;89.39
74169;BME280;62523;53.336;83.690;2023-02-01T17:43:35;100550.34;;;-12.20;90.05
74169;BME280;62523;53.336;83.690;2023-02-01T17:48:37;100541.38;;;-12.30;90.08
74169;BME280;62523;53.336;83.690;2023-02-01T17:53:38;100543.28;;;-12.26;89.99
74169;BME280;62523;53.336;83.690;2023-02-01T17:58:39;100511.22;;;-12.55;90.17
74169;BME280;62523;53.336;83.690;2023-02-01T18:03:41;100529.03;;;-12.39;90.74
74169;BME280;62523;53.336;83.690;2023-02-01T18:08:43;100525.06;;;-12.33;91.02
74169;BME280;62523;53.336;83.690;2023-02-01T18:13:44;100542.00;;;-12.18;90.96
74169;BME280;62523;53.336;83.690;2023-02-01T18:18:46;100524.66;;;-12.41;91.34
74169;BME280;62523;53.336;83.690;2023-02-01T18:23:48;100535.66;;;-12.26;91.82
74169;BME280;62523;53.336;83.690;2023-02-01T18:28:49;100536.81;;;-12.35;92.57
74169;BME280;62523;53.336;83.690;2023-02-01T18:33:51;100517.66;;;-12.45;92.79
74169;BME280;62523;53.336;83.690;2023-02-01T18:38:53;100520.75;;;-12.51;92.94
74169;BME280;62523;53.336;83.690;2023-02-01T18:43:57;100529.06;;;-12.53;93.84
74169;BME280;62523;53.336;83.690;2023-02-01T18:48:58;100508.44;;;-12.60;94.13
74169;BME280;62523;53.336;83.690;2023-02-01T18:53:59;100539.59;;;-12.62;93.57
74169;BME280;62523;53.336;83.690;2023-02-01T18:59:01;100541.53;;;-12.73;94.64
74169;BME280;62523;53.336;83.690;2023-02-01T19:04:02;100532.41;;;-12.84;94.87
74169;BME280;62523;53.336;83.690;2023-02-01T19:09:03;100539.50;;;-12.93;95.12
74169;BME280;62523;53.336;83.690;2023-02-01T19:14:04;100542.06;;;-12.93;96.15
74169;BME280;62523;53.336;83.690;2023-02-01T19:19:06;100539.34;;;-12.96;95.67
74169;BME280;62523;53.336;83.690;2023-02-01T19:24:08;100550.63;;;-13.06;95.68
74169;BME280;62523;53.336;83.690;2023-02-01T19:29:10;100530.50;;;-13.18;96.66
74169;BME280;62523;53.336;83.690;2023-02-01T19:34:11;100531.63;;;-13.28;97.65
74169;BME280;62523;53.336;83.690;2023-02-01T19:39:12;100529.22;;;-12.96;97.88
74169;BME280;62523;53.336;83.690;2023-02-01T19:44:13;100531.66;;;-12.83;97.23
74169;BME280;62523;53.336;83.690;2023-02-01T19:49:15;100528.56;;;-12.78;96.40
74169;BME280;62523;53.336;83.690;2023-02-01T19:54:16;100538.72;;;-12.78;95.99
74169;BME280;62523;53.336;83.690;2023-02-01T19:59:17;100527.19;;;-12.87;95.64
74169;BME280;62523;53.336;83.690;2023-02-01T20:04:19;100521.31;;;-12.86;95.58
74169;BME280;62523;53.336;83.690;2023-02-01T20:09:23;100528.31;;;-12.82;95.62
74169;BME280;62523;53.336;83.690;2023-02-01T20:14:25;100520.69;;;-12.97;95.87
74169;BME280;62523;53.336;83.690;2023-02-01T20:19:27;100537.16;;;-12.90;95.79
74169;BME280;62523;53.336;83.690;2023-02-01T20:24:30;100524.19;;;-13.10;96.00
74169;BME280;62523;53.336;83.690;2023-02-01T20:29:31;100535.13;;;-13.26;97.14
74169;BME280;62523;53.336;83.690;2023-02-01T20:34:32;100540.47;;;-13.36;97.37
74169;BME280;62523;53.336;83.690;2023-02-01T20:39:33;100528.22;;;-13.43;98.06
74169;BME280;62523;53.336;83.690;2023-02-01T20:44:34;100529.97;;;-13.27;98.08
74169;BME280;62523;53.336;83.690;2023-02-01T20:49:36;100520.66;;;-13.28;98.03
74169;BME280;62523;53.336;83.690;2023-02-01T20:54:40;100532.16;;;-13.48;97.67
74169;BME280;62523;53.336;83.690;2023-02-01T20:59:41;100528.84;;;-13.47;98.16
74169;BME280;62523;53.336;83.690;2023-02-01T21:04:42;100512.66;;;-13.49;99.10
74169;BME280;62523;53.336;83.690;2023-02-01T21:09:43;100527.19;;;-13.17;98.49
74169;BME280;62523;53.336;83.690;2023-02-01T21:14:45;100520.06;;;-13.23;98.31
74169;BME280;62523;53.336;83.690;2023-02-01T21:19:46;100515.97;;;-13.21;97.65
74169;BME280;62523;53.336;83.690;2023-02-01T21:24:47;100514.34;;;-13.20;97.07
74169;BME280;62523;53.336;83.690;2023-02-01T21:29:48;100513.88;;;-13.28;97.40
74169;BME280;62523;53.336;83.690;2023-02-01T21:34:49;100530.94;;;-13.10;97.90
74169;BME280;62523;53.336;83.690;2023-02-01T21:39:53;100514.84;;;-13.26;97.66
74169;BME280;62523;53.336;83.690;2023-02-01T21:44:56;100515.81;;;-13.24;97.25
74169;BME280;62523;53.336;83.690;2023-02-01T21:49:59;100518.25;;;-13.25;97.62
74169;BME280;62523;53.336;83.690;2023-02-01T21:55:00;100520.88;;;-13.09;97.98
74169;BME280;62523;53.336;83.690;2023-02-01T22:00:02;100524.19;;;-13.10;97.04
74169;BME280;62523;53.336;83.690;2023-02-01T22:05:05;100529.25;;;-13.10;96.59
74169;BME280;62523;53.336;83.690;2023-02-01T22:10:08;100522.28;;;-13.14;96.70
74169;BME280;62523;53.336;83.690;2023-02-01T22:15:10;100516.94;;;-13.04;96.43
74169;BME280;62523;53.336;83.690;2023-02-01T22:20:11;100513.78;;;-13.00;96.33
74169;BME280;62523;53.336;83.690;2023-02-01T22:25:12;100525.44;;;-13.03;96.55
74169;BME280;62523;53.336;83.690;2023-02-01T22:30:13;100525.50;;;-13.16;96.07
74169;BME280;62523;53.336;83.690;2023-02-01T22:35:15;100511.00;;;-13.49;96.21
74169;BME280;62523;53.336;83.690;2023-02-01T22:40:16;100478.53;;;-13.84;96.76
74169;BME280;62523;53.336;83.690;2023-02-01T22:45:17;100519.09;;;-13.69;96.96
74169;BME280;62523;53.336;83.690;2023-02-01T22:50:18;100527.41;;;-13.72;97.56
74169;BME280;62523;53.336;83.690;2023-02-01T22:55:19;100525.84;;;-13.83;97.53
74169;BME280;62523;53.336;83.690;2023-02-01T23:00:21;100513.56;;;-14.05;98.25
74169;BME280;62523;53.336;83.690;2023-02-01T23:05:24;100515.66;;;-13.85;98.71
74169;BME280;62523;53.336;83.690;2023-02-01T23:10:26;100518.63;;;-14.05;99.04
74169;BME280;62523;53.336;83.690;2023-02-01T23:15:27;100518.06;;;-14.14;99.42
74169;BME280;62523;53.336;83.690;2023-02-01T23:20:29;100514.22;;;-13.94;99.89
74169;BME280;62523;53.336;83.690;2023-02-01T23:25:30;100509.34;;;-13.91;99.86
74169;BME280;62523;53.336;83.690;2023-02-01T23:30:31;100514.16;;;-14.09;99.33
74169;BME280;62523;53.336;83.690;2023-02-01T23:35:32;100498.94;;;-13.81;99.81
74169;BME280;62523;53.336;83.690;2023-02-01T23:40:33;100496.13;;;-13.57;99.33
74169;BME280;62523;53.336;83.690;2023-02-01T23:45:34;100489.94;;;-13.48;98.27
74169;BME280;62523;53.336;83.690;2023-02-01T23:50:35;100496.28;;;-13.69;98.23
74169;BME280;62523;53.336;83.690;2023-02-01T23:55:37;100491.75;;;-13.60;97.63
